sensor_id;sensor_type;location;lat;lon;timestamp;P1;durP1;ratioP1;P2;durP2;ratioP2
38611;SDS011;24368;52.156;20.788;2023-02-28T00:03:25;44.30;;;31.30;;
38611;SDS011;24368;52.156;20.788;2023-02-28T00:08:27;43.10;;;30.60;;
38611;SDS011;24368;52.156;20.788;2023-02-28T00:13:29;47.20;;;31.90;;
38611;SDS011;24368;52.156;20.788;2023-02-28T00:18:31;29.10;;;21.40;;
38611;SDS011;24368;52.156;20.788;2023-02-28T00:23:34;34.30;;;23.00;;
38611;SDS011;24368;52.156;20.788;2023-02-28T00:28:36;38.10;;;26.50;;
38611;SDS011;24368;52.156;20.788;2023-02-28T00:33:38;38.00;;;24.60;;
38611;SDS011;24368;52.156;20.788;2023-02-28T00:38:40;29.60;;;20.70;;
38611;SDS011;24368;52.156;20.788;2023-02-28T00:43:42;33.20;;;21.90;;
38611;SDS011;24368;52.156;20.788;2023-02-28T00:48:44;31.20;;;21.00;;
38611;SDS011;24368;52.156;20.788;2023-02-28T00:53:45;30.90;;;20.90;;
38611;SDS011;24368;52.156;20.788;2023-02-28T00:58:47;38.40;;;24.10;;
38611;SDS011;24368;52.156;20.788;2023-02-28T01:03:49;41.90;;;25.90;;
38611;SDS011;24368;52.156;20.788;2023-02-28T01:08:50;36.70;;;22.90;;
38611;SDS011;24368;52.156;20.788;2023-02-28T01:13:52;36.60;;;23.90;;
38611;SDS011;24368;52.156;20.788;2023-02-28T01:18:54;37.40;;;24.70;;
38611;SDS011;24368;52.156;20.788;2023-02-28T01:23:56;39.80;;;24.40;;
38611;SDS011;24368;52.156;20.788;2023-02-28T01:28:59;41.00;;;26.00;;
38611;SDS011;24368;52.156;20.788;2023-02-28T01:34:01;49.00;;;29.50;;
38611;SDS011;24368;52.156;20.788;2023-02-28T01:39:03;41.30;;;27.70;;
38611;SDS011;24368;52.156;20.788;2023-02-28T01:49:27;45.00;;;29.60;;
38611;SDS011;24368;52.156;20.788;2023-02-28T01:54:30;49.80;;;29.10;;
38611;SDS011;24368;52.156;20.788;2023-02-28T01:59:36;48.60;;;29.60;;
38611;SDS011;24368;52.156;20.788;2023-02-28T02:04:58;53.50;;;34.10;;
38611;SDS011;24368;52.156;20.788;2023-02-28T02:10:16;49.00;;;27.00;;
38611;SDS011;24368;52.156;20.788;2023-02-28T02:15:34;46.90;;;29.60;;
38611;SDS011;24368;52.156;20.788;2023-02-28T02:47:34;49.20;;;28.20;;
38611;SDS011;24368;52.156;20.788;2023-02-28T02:52:40;45.70;;;27.00;;
38611;SDS011;24368;52.156;20.788;2023-02-28T02:57:53;47.80;;;28.60;;
38611;SDS011;24368;52.156;20.788;2023-02-28T03:03:00;44.20;;;26.10;;
38611;SDS011;24368;52.156;20.788;2023-02-28T03:08:04;41.60;;;26.10;;
38611;SDS011;24368;52.156;20.788;2023-02-28T03:29:34;41.00;;;23.70;;
38611;SDS011;24368;52.156;20.788;2023-02-28T03:34:42;47.20;;;27.50;;
38611;SDS011;24368;52.156;20.788;2023-02-28T03:39:55;55.20;;;30.50;;
38611;SDS011;24368;52.156;20.788;2023-02-28T03:45:03;38.40;;;24.50;;
38611;SDS011;24368;52.156;20.788;2023-02-28T03:55:23;38.50;;;26.80;;
38611;SDS011;24368;52.156;20.788;2023-02-28T04:00:27;40.10;;;24.60;;
38611;SDS011;24368;52.156;20.788;2023-02-28T04:05:52;43.20;;;24.90;;
38611;SDS011;24368;52.156;20.788;2023-02-28T04:10:58;37.50;;;26.20;;
38611;SDS011;24368;52.156;20.788;2023-02-28T04:16:20;40.50;;;25.80;;
38611;SDS011;24368;52.156;20.788;2023-02-28T04:21:22;37.70;;;24.20;;
38611;SDS011;24368;52.156;20.788;2023-02-28T04:26:24;42.10;;;27.40;;
38611;SDS011;24368;52.156;20.788;2023-02-28T04:31:25;50.60;;;30.70;;
38611;SDS011;24368;52.156;20.788;2023-02-28T04:36:28;43.20;;;26.90;;
38611;SDS011;24368;52.156;20.788;2023-02-28T04:41:30;38.60;;;25.10;;
38611;SDS011;24368;52.156;20.788;2023-02-28T04:46:32;40.20;;;25.00;;
38611;SDS011;24368;52.156;20.788;2023-02-28T04:51:34;40.20;;;25.40;;
38611;SDS011;24368;52.156;20.788;2023-02-28T04:56:35;28.30;;;19.50;;
38611;SDS011;24368;52.156;20.788;2023-02-28T05:01:37;29.10;;;18.60;;
38611;SDS011;24368;52.156;20.788;2023-02-28T05:06:39;38.70;;;21.90;;
38611;SDS011;24368;52.156;20.788;2023-02-28T05:11:41;34.40;;;21.90;;
38611;SDS011;24368;52.156;20.788;2023-02-28T05:16:43;39.20;;;23.30;;
38611;SDS011;24368;52.156;20.788;2023-02-28T05:21:52;44.30;;;27.30;;
38611;SDS011;24368;52.156;20.788;2023-02-28T05:26:55;59.00;;;36.70;;
38611;SDS011;24368;52.156;20.788;2023-02-28T05:31:57;58.50;;;37.10;;
38611;SDS011;24368;52.156;20.788;2023-02-28T05:36:59;70.90;;;39.60;;
38611;SDS011;24368;52.156;20.788;2023-02-28T05:42:01;62.80;;;37.30;;
38611;SDS011;24368;52.156;20.788;2023-02-28T05:47:02;65.70;;;42.80;;
38611;SDS011;24368;52.156;20.788;2023-02-28T05:52:04;65.90;;;38.90;;
38611;SDS011;24368;52.156;20.788;2023-02-28T05:57:06;52.00;;;31.00;;
38611;SDS011;24368;52.156;20.788;2023-02-28T06:02:14;54.10;;;31.00;;
38611;SDS011;24368;52.156;20.788;2023-02-28T06:07:18;56.60;;;30.50;;
38611;SDS011;24368;52.156;20.788;2023-02-28T06:12:19;53.80;;;30.70;;
38611;SDS011;24368;52.156;20.788;2023-02-28T06:17:21;51.10;;;27.40;;
38611;SDS011;24368;52.156;20.788;2023-02-28T06:22:23;52.70;;;32.70;;
38611;SDS011;24368;52.156;20.788;2023-02-28T06:27:24;58.20;;;32.50;;
38611;SDS011;24368;52.156;20.788;2023-02-28T06:32:26;52.10;;;30.90;;
38611;SDS011;24368;52.156;20.788;2023-02-28T06:37:28;44.00;;;30.10;;
38611;SDS011;24368;52.156;20.788;2023-02-28T06:42:32;52.10;;;31.70;;
38611;SDS011;24368;52.156;20.788;2023-02-28T06:47:35;42.40;;;30.20;;
38611;SDS011;24368;52.156;20.788;2023-02-28T06:52:38;44.10;;;30.30;;
38611;SDS011;24368;52.156;20.788;2023-02-28T06:57:39;38.50;;;27.90;;
38611;SDS011;24368;52.156;20.788;2023-02-28T07:02:41;38.30;;;26.10;;
38611;SDS011;24368;52.156;20.788;2023-02-28T07:07:43;37.20;;;22.70;;
38611;SDS011;24368;52.156;20.788;2023-02-28T07:12:47;32.70;;;21.90;;
38611;SDS011;24368;52.156;20.788;2023-02-28T07:17:49;23.50;;;17.50;;
38611;SDS011;24368;52.156;20.788;2023-02-28T07:22:51;18.80;;;13.50;;
38611;SDS011;24368;52.156;20.788;2023-02-28T07:27:57;16.10;;;12.50;;
38611;SDS011;24368;52.156;20.788;2023-02-28T07:33:00;14.30;;;12.10;;
38611;SDS011;24368;52.156;20.788;2023-02-28T07:38:02;11.60;;;9.60;;
38611;SDS011;24368;52.156;20.788;2023-02-28T07:43:05;12.30;;;9.00;;
38611;SDS011;24368;52.156;20.788;2023-02-28T07:48:06;13.90;;;9.90;;
38611;SDS011;24368;52.156;20.788;2023-02-28T07:53:11;11.50;;;7.90;;
38611;SDS011;24368;52.156;20.788;2023-02-28T07:58:13;10.50;;;8.60;;
38611;SDS011;24368;52.156;20.788;2023-02-28T08:03:14;11.80;;;9.00;;
38611;SDS011;24368;52.156;20.788;2023-02-28T08:08:17;8.50;;;6.70;;
38611;SDS011;24368;52.156;20.788;2023-02-28T08:13:19;7.40;;;6.70;;
38611;SDS011;24368;52.156;20.788;2023-02-28T08:18:21;7.20;;;6.50;;
38611;SDS011;24368;52.156;20.788;2023-02-28T08:23:24;9.10;;;7.10;;
38611;SDS011;24368;52.156;20.788;2023-02-28T08:28:26;9.10;;;6.70;;
38611;SDS011;24368;52.156;20.788;2023-02-28T08:33:27;7.60;;;6.70;;
38611;SDS011;24368;52.156;20.788;2023-02-28T08:38:29;13.50;;;9.40;;
38611;SDS011;24368;52.156;20.788;2023-02-28T08:43:31;9.60;;;7.80;;
38611;SDS011;24368;52.156;20.788;2023-02-28T08:48:34;7.70;;;6.60;;
38611;SDS011;24368;52.156;20.788;2023-02-28T08:53:39;7.70;;;6.80;;
38611;SDS011;24368;52.156;20.788;2023-02-28T08:58:42;9.30;;;7.70;;
38611;SDS011;24368;52.156;20.788;2023-02-28T09:03:45;14.50;;;9.90;;
38611;SDS011;24368;52.156;20.788;2023-02-28T09:08:48;8.90;;;7.20;;
38611;SDS011;24368;52.156;20.788;2023-02-28T09:13:50;8.60;;;7.40;;
38611;SDS011;24368;52.156;20.788;2023-02-28T09:18:52;9.30;;;8.00;;
38611;SDS011;24368;52.156;20.788;2023-02-28T09:23:54;8.20;;;7.20;;
38611;SDS011;24368;52.156;20.788;2023-02-28T09:28:56;10.10;;;7.50;;
38611;SDS011;24368;52.156;20.788;2023-02-28T09:34:00;8.80;;;7.30;;
38611;SDS011;24368;52.156;20.788;2023-02-28T09:39:02;9.40;;;7.40;;
38611;SDS011;24368;52.156;20.788;2023-02-28T09:44:04;10.10;;;7.20;;
38611;SDS011;24368;52.156;20.788;2023-02-28T09:49:12;9.30;;;7.40;;
38611;SDS011;24368;52.156;20.788;2023-02-28T09:54:19;8.50;;;7.40;;
38611;SDS011;24368;52.156;20.788;2023-02-28T10:05:08;9.00;;;8.10;;
38611;SDS011;24368;52.156;20.788;2023-02-28T10:15:25;10.00;;;7.20;;
38611;SDS011;24368;52.156;20.788;2023-02-28T10:20:32;10.70;;;8.70;;
38611;SDS011;24368;52.156;20.788;2023-02-28T10:25:36;9.40;;;8.50;;
38611;SDS011;24368;52.156;20.788;2023-02-28T10:30:49;9.40;;;8.40;;
38611;SDS011;24368;52.156;20.788;2023-02-28T10:35:53;9.00;;;7.50;;
38611;SDS011;24368;52.156;20.788;2023-02-28T10:41:05;9.90;;;8.00;;
38611;SDS011;24368;52.156;20.788;2023-02-28T10:46:18;9.80;;;8.30;;
38611;SDS011;24368;52.156;20.788;2023-02-28T10:51:34;10.70;;;8.10;;
38611;SDS011;24368;52.156;20.788;2023-02-28T10:56:41;9.30;;;7.60;;
38611;SDS011;24368;52.156;20.788;2023-02-28T11:01:44;9.30;;;8.30;;
38611;SDS011;24368;52.156;20.788;2023-02-28T11:06:57;10.00;;;8.40;;
38611;SDS011;24368;52.156;20.788;2023-02-28T11:12:01;10.70;;;8.90;;
38611;SDS011;24368;52.156;20.788;2023-02-28T11:17:19;8.40;;;7.10;;
38611;SDS011;24368;52.156;20.788;2023-02-28T11:22:27;9.40;;;7.90;;
38611;SDS011;24368;52.156;20.788;2023-02-28T11:32:34;9.30;;;8.00;;
38611;SDS011;24368;52.156;20.788;2023-02-28T11:37:37;10.70;;;9.20;;
38611;SDS011;24368;52.156;20.788;2023-02-28T11:42:50;8.80;;;7.50;;
38611;SDS011;24368;52.156;20.788;2023-02-28T12:30:56;8.80;;;7.90;;
38611;SDS011;24368;52.156;20.788;2023-02-28T12:36:04;7.90;;;7.00;;
38611;SDS011;24368;52.156;20.788;2023-02-28T12:46:21;8.20;;;7.30;;
38611;SDS011;24368;52.156;20.788;2023-02-28T12:51:28;7.80;;;7.00;;
38611;SDS011;24368;52.156;20.788;2023-02-28T13:17:35;8.60;;;7.90;;
38611;SDS011;24368;52.156;20.788;2023-02-28T13:22:41;8.30;;;7.50;;
38611;SDS011;24368;52.156;20.788;2023-02-28T13:27:45;8.90;;;8.00;;
38611;SDS011;24368;52.156;20.788;2023-02-28T13:33:02;9.10;;;8.10;;
38611;SDS011;24368;52.156;20.788;2023-02-28T13:38:34;8.80;;;8.00;;
38611;SDS011;24368;52.156;20.788;2023-02-28T13:54:26;8.00;;;7.20;;
38611;SDS011;24368;52.156;20.788;2023-02-28T14:05:12;8.50;;;7.70;;
38611;SDS011;24368;52.156;20.788;2023-02-28T14:10:36;8.90;;;8.10;;
38611;SDS011;24368;52.156;20.788;2023-02-28T14:15:46;10.40;;;9.40;;
38611;SDS011;24368;52.156;20.788;2023-02-28T14:20:56;9.10;;;8.20;;
38611;SDS011;24368;52.156;20.788;2023-02-28T14:26:19;8.20;;;7.20;;
38611;SDS011;24368;52.156;20.788;2023-02-28T14:37:05;8.50;;;7.60;;
38611;SDS011;24368;52.156;20.788;2023-02-28T14:47:36;8.90;;;8.10;;
38611;SDS011;24368;52.156;20.788;2023-02-28T14:52:39;9.00;;;7.70;;
38611;SDS011;24368;52.156;20.788;2023-02-28T14:57:55;8.50;;;7.10;;
38611;SDS011;24368;52.156;20.788;2023-02-28T15:02:59;8.20;;;7.30;;
38611;SDS011;24368;52.156;20.788;2023-02-28T15:08:04;7.70;;;6.30;;
38611;SDS011;24368;52.156;20.788;2023-02-28T15:13:15;6.10;;;5.60;;
38611;SDS011;24368;52.156;20.788;2023-02-28T15:18:33;8.50;;;7.30;;
38611;SDS011;24368;52.156;20.788;2023-02-28T15:23:45;7.70;;;6.90;;
38611;SDS011;24368;52.156;20.788;2023-02-28T15:28:52;9.00;;;8.00;;
38611;SDS011;24368;52.156;20.788;2023-02-28T15:34:04;8.40;;;7.60;;
38611;SDS011;24368;52.156;20.788;2023-02-28T15:39:24;9.90;;;7.50;;
38611;SDS011;24368;52.156;20.788;2023-02-28T15:44:33;7.20;;;6.00;;
38611;SDS011;24368;52.156;20.788;2023-02-28T15:50:18;13.20;;;8.50;;
38611;SDS011;24368;52.156;20.788;2023-02-28T15:55:16;10.30;;;7.80;;
38611;SDS011;24368;52.156;20.788;2023-02-28T16:00:22;10.00;;;7.70;;
38611;SDS011;24368;52.156;20.788;2023-02-28T16:10:35;9.30;;;7.10;;
38611;SDS011;24368;52.156;20.788;2023-02-28T16:15:37;12.60;;;8.00;;
38611;SDS011;24368;52.156;20.788;2023-02-28T16:20:43;16.40;;;9.90;;
38611;SDS011;24368;52.156;20.788;2023-02-28T16:25:46;9.50;;;7.60;;
38611;SDS011;24368;52.156;20.788;2023-02-28T16:30:48;11.40;;;8.60;;
38611;SDS011;24368;52.156;20.788;2023-02-28T16:35:53;12.40;;;9.90;;
38611;SDS011;24368;52.156;20.788;2023-02-28T16:40:55;13.40;;;10.30;;
38611;SDS011;24368;52.156;20.788;2023-02-28T16:46:01;14.30;;;10.80;;
38611;SDS011;24368;52.156;20.788;2023-02-28T16:51:04;15.40;;;12.50;;
38611;SDS011;24368;52.156;20.788;2023-02-28T16:56:08;20.80;;;14.00;;
38611;SDS011;24368;52.156;20.788;2023-02-28T17:01:21;35.10;;;23.60;;
38611;SDS011;24368;52.156;20.788;2023-02-28T17:06:25;36.20;;;23.60;;
38611;SDS011;24368;52.156;20.788;2023-02-28T17:11:29;31.10;;;21.80;;
38611;SDS011;24368;52.156;20.788;2023-02-28T17:16:35;32.00;;;20.60;;
38611;SDS011;24368;52.156;20.788;2023-02-28T17:21:41;35.70;;;25.00;;
38611;SDS011;24368;52.156;20.788;2023-02-28T17:26:44;40.70;;;25.90;;
38611;SDS011;24368;52.156;20.788;2023-02-28T17:31:47;32.60;;;20.30;;
38611;SDS011;24368;52.156;20.788;2023-02-28T17:36:49;21.70;;;16.00;;
38611;SDS011;24368;52.156;20.788;2023-02-28T17:41:54;27.60;;;17.30;;
38611;SDS011;24368;52.156;20.788;2023-02-28T17:46:56;22.60;;;15.70;;
38611;SDS011;24368;52.156;20.788;2023-02-28T17:51:58;23.70;;;14.30;;
38611;SDS011;24368;52.156;20.788;2023-02-28T17:57:01;35.10;;;22.40;;
38611;SDS011;24368;52.156;20.788;2023-02-28T18:02:03;30.90;;;20.60;;
38611;SDS011;24368;52.156;20.788;2023-02-28T18:07:06;27.80;;;20.60;;
38611;SDS011;24368;52.156;20.788;2023-02-28T18:12:12;33.40;;;24.10;;
38611;SDS011;24368;52.156;20.788;2023-02-28T18:17:15;29.50;;;20.60;;
38611;SDS011;24368;52.156;20.788;2023-02-28T18:22:17;41.20;;;24.10;;
38611;SDS011;24368;52.156;20.788;2023-02-28T18:27:19;35.40;;;22.90;;
38611;SDS011;24368;52.156;20.788;2023-02-28T18:32:21;28.70;;;18.20;;
38611;SDS011;24368;52.156;20.788;2023-02-28T18:37:23;21.70;;;17.00;;
38611;SDS011;24368;52.156;20.788;2023-02-28T18:42:25;26.30;;;18.10;;
38611;SDS011;24368;52.156;20.788;2023-02-28T18:47:26;26.70;;;17.80;;
38611;SDS011;24368;52.156;20.788;2023-02-28T18:52:28;35.30;;;24.10;;
38611;SDS011;24368;52.156;20.788;2023-02-28T18:57:30;34.50;;;24.00;;
38611;SDS011;24368;52.156;20.788;2023-02-28T19:02:32;46.70;;;31.50;;
38611;SDS011;24368;52.156;20.788;2023-02-28T19:07:34;51.20;;;29.50;;
38611;SDS011;24368;52.156;20.788;2023-02-28T19:12:36;54.50;;;35.90;;
38611;SDS011;24368;52.156;20.788;2023-02-28T19:17:39;51.60;;;35.20;;
38611;SDS011;24368;52.156;20.788;2023-02-28T19:22:41;51.80;;;34.50;;
38611;SDS011;24368;52.156;20.788;2023-02-28T19:27:44;48.80;;;35.00;;
38611;SDS011;24368;52.156;20.788;2023-02-28T19:32:46;61.70;;;39.00;;
38611;SDS011;24368;52.156;20.788;2023-02-28T19:37:49;51.20;;;35.30;;
38611;SDS011;24368;52.156;20.788;2023-02-28T19:42:53;64.00;;;42.30;;
38611;SDS011;24368;52.156;20.788;2023-02-28T19:47:55;63.90;;;39.40;;
38611;SDS011;24368;52.156;20.788;2023-02-28T19:52:56;57.40;;;39.60;;
38611;SDS011;24368;52.156;20.788;2023-02-28T19:57:58;67.50;;;46.40;;
38611;SDS011;24368;52.156;20.788;2023-02-28T20:03:00;87.30;;;53.50;;
38611;SDS011;24368;52.156;20.788;2023-02-28T20:08:03;87.80;;;54.10;;
38611;SDS011;24368;52.156;20.788;2023-02-28T20:13:05;91.70;;;58.10;;
38611;SDS011;24368;52.156;20.788;2023-02-28T20:18:06;86.90;;;58.10;;
38611;SDS011;24368;52.156;20.788;2023-02-28T20:23:08;71.20;;;46.90;;
38611;SDS011;24368;52.156;20.788;2023-02-28T20:28:10;70.70;;;48.20;;
38611;SDS011;24368;52.156;20.788;2023-02-28T20:33:12;75.10;;;49.40;;
38611;SDS011;24368;52.156;20.788;2023-02-28T20:38:14;73.30;;;45.50;;
38611;SDS011;24368;52.156;20.788;2023-02-28T20:43:16;68.90;;;47.10;;
38611;SDS011;24368;52.156;20.788;2023-02-28T20:48:18;84.40;;;58.10;;
38611;SDS011;24368;52.156;20.788;2023-02-28T20:53:20;88.30;;;55.20;;
38611;SDS011;24368;52.156;20.788;2023-02-28T20:58:25;78.90;;;51.40;;
38611;SDS011;24368;52.156;20.788;2023-02-28T21:03:29;74.30;;;51.70;;
38611;SDS011;24368;52.156;20.788;2023-02-28T21:08:32;77.50;;;50.10;;
38611;SDS011;24368;52.156;20.788;2023-02-28T21:13:36;79.50;;;52.90;;
38611;SDS011;24368;52.156;20.788;2023-02-28T21:18:38;86.60;;;55.70;;
38611;SDS011;24368;52.156;20.788;2023-02-28T21:23:41;87.80;;;57.20;;
38611;SDS011;24368;52.156;20.788;2023-02-28T21:28:47;90.10;;;58.10;;
38611;SDS011;24368;52.156;20.788;2023-02-28T21:33:51;100.90;;;63.70;;
38611;SDS011;24368;52.156;20.788;2023-02-28T21:38:59;95.30;;;62.90;;
38611;SDS011;24368;52.156;20.788;2023-02-28T21:44:03;85.00;;;54.40;;
38611;SDS011;24368;52.156;20.788;2023-02-28T21:49:06;77.80;;;50.70;;
38611;SDS011;24368;52.156;20.788;2023-02-28T21:54:07;83.30;;;53.30;;
38611;SDS011;24368;52.156;20.788;2023-02-28T21:59:11;83.20;;;52.90;;
38611;SDS011;24368;52.156;20.788;2023-02-28T22:04:14;76.80;;;48.90;;
38611;SDS011;24368;52.156;20.788;2023-02-28T22:09:24;84.60;;;52.30;;
38611;SDS011;24368;52.156;20.788;2023-02-28T22:14:26;89.70;;;55.60;;
38611;SDS011;24368;52.156;20.788;2023-02-28T22:19:28;83.30;;;51.90;;
38611;SDS011;24368;52.156;20.788;2023-02-28T22:24:30;84.60;;;57.70;;
38611;SDS011;24368;52.156;20.788;2023-02-28T22:29:31;85.80;;;55.10;;
38611;SDS011;24368;52.156;20.788;2023-02-28T22:34:33;82.20;;;52.80;;
38611;SDS011;24368;52.156;20.788;2023-02-28T22:39:35;84.40;;;53.30;;
38611;SDS011;24368;52.156;20.788;2023-02-28T22:44:37;84.90;;;56.70;;
38611;SDS011;24368;52.156;20.788;2023-02-28T22:49:39;87.00;;;53.80;;
38611;SDS011;24368;52.156;20.788;2023-02-28T22:54:41;80.60;;;52.70;;
38611;SDS011;24368;52.156;20.788;2023-02-28T22:59:42;76.50;;;48.10;;
38611;SDS011;24368;52.156;20.788;2023-02-28T23:04:44;79.50;;;52.50;;
38611;SDS011;24368;52.156;20.788;2023-02-28T23:09:47;75.50;;;48.30;;
38611;SDS011;24368;52.156;20.788;2023-02-28T23:14:51;68.40;;;45.60;;
38611;SDS011;24368;52.156;20.788;2023-02-28T23:19:53;70.60;;;47.00;;
38611;SDS011;24368;52.156;20.788;2023-02-28T23:24:55;66.80;;;44.10;;
38611;SDS011;24368;52.156;20.788;2023-02-28T23:29:57;71.60;;;42.60;;
38611;SDS011;24368;52.156;20.788;2023-02-28T23:34:59;67.40;;;42.40;;
38611;SDS011;24368;52.156;20.788;2023-02-28T23:40:01;65.40;;;42.50;;
38611;SDS011;24368;52.156;20.788;2023-02-28T23:45:04;70.50;;;44.10;;
38611;SDS011;24368;52.156;20.788;2023-02-28T23:50:07;66.10;;;42.10;;
38611;SDS011;24368;52.156;20.788;2023-02-28T23:55:10;64.70;;;42.00;;
